RJFS(METAR)
02/01 23:00
METAR RJFS 011400Z 26007KT 9999 FEW030 BKN/// 09/02 Q1018 RMK 1CU030
A3007=
戻る
トップページへ戻る
IMOC Co,.Ltd.